Time,TemperatureF,DewpointF,PressureIn,WindDirection,WindDirectionDegrees,WindSpeedMPH,WindSpeedGustMPH,Humidity,HourlyPrecipIn,Conditions,Clouds,dailyrainin,SoftwareType,DateUTC
2017-05-25 00:01:00,54.1,52.7,29.57,ESE,103,0.0,2.3,95,0.00,RA,,0.00,WeatherDisplay:10.37,2017-05-25 04:01:00,
2017-05-25 00:07:00,54.0,52.6,29.57,ESE,103,0.0,2.3,95,0.00,RA,,0.00,WeatherDisplay:10.37,2017-05-25 04:07:00,
2017-05-25 00:12:00,54.0,52.6,29.57,ESE,103,0.1,1.2,95,0.00,CLR,,0.00,WeatherDisplay:10.37,2017-05-25 04:12:00,
2017-05-25 00:17:00,53.9,52.5,29.57,East,100,0.2,1.2,95,0.00,CLR,,0.00,WeatherDisplay:10.37,2017-05-25 04:17:00,
2017-05-25 00:22:00,53.9,52.5,29.57,North,7,0.0,2.3,95,0.00,CLR,,0.00,WeatherDisplay:10.37,2017-05-25 04:22:00,
2017-05-25 00:27:00,53.8,52.4,29.57,North,7,0.0,2.3,95,0.00,CLR,,0.00,WeatherDisplay:10.37,2017-05-25 04:27:00,
2017-05-25 00:32:00,53.7,52.3,29.57,North,7,0.0,2.3,95,0.00,CLR,,0.00,WeatherDisplay:10.37,2017-05-25 04:32:00,
2017-05-25 00:37:00,53.5,52.1,29.57,North,7,0.1,1.2,95,0.00,CLR,,0.00,WeatherDisplay:10.37,2017-05-25 04:37:00,
2017-05-25 00:42:00,53.3,51.9,29.57,North,7,0.1,1.2,95,0.00,CLR,,0.00,WeatherDisplay:10.37,2017-05-25 04:42:00,
2017-05-25 00:47:00,53.2,51.8,29.57,NNE,26,0.0,2.3,95,0.00,CLR,,0.00,WeatherDisplay:10.37,2017-05-25 04:47:00,
2017-05-25 00:52:00,53.1,51.7,29.57,NNE,26,0.0,2.3,95,0.00,CLR,,0.00,WeatherDisplay:10.37,2017-05-25 04:52:00,
2017-05-25 00:57:00,53.0,51.9,29.57,NE,42,0.4,1.2,96,0.00,CLR,,0.00,WeatherDisplay:10.37,2017-05-25 04:57:00,
2017-05-25 01:02:00,52.9,51.8,29.57,NE,42,0.0,1.2,96,0.00,CLR,,0.00,WeatherDisplay:10.37,2017-05-25 05:02:00,
2017-05-25 01:07:00,52.8,51.7,29.57,NE,42,0.0,1.2,96,0.00,CLR,,0.00,WeatherDisplay:10.37,2017-05-25 05:07:00,
2017-05-25 01:12:00,52.6,51.2,29.57,NE,42,0.0,1.2,95,0.00,CLR,,0.00,WeatherDisplay:10.37,2017-05-25 05:12:00,
2017-05-25 01:17:00,52.5,51.4,29.57,ENE,77,0.2,1.2,96,0.00,CLR,,0.00,WeatherDisplay:10.37,2017-05-25 05:17:00,
2017-05-25 01:22:00,52.5,51.4,29.57,SSW,203,0.7,3.5,96,0.00,CLR,,0.00,WeatherDisplay:10.37,2017-05-25 05:22:00,
2017-05-25 01:27:00,52.5,51.1,29.57,SE,134,0.6,3.5,95,0.00,CLR,,0.00,WeatherDisplay:10.37,2017-05-25 05:27:00,
2017-05-25 01:32:00,52.5,51.1,29.58,ESE,117,0.3,2.3,95,0.00,CLR,,0.00,WeatherDisplay:10.37,2017-05-25 05:32:00,
2017-05-25 01:37:00,52.4,51.0,29.58,ESE,117,0.2,2.3,95,0.00,CLR,,0.00,WeatherDisplay:10.37,2017-05-25 05:37:00,
2017-05-25 01:42:00,52.4,51.0,29.58,ESE,117,0.0,1.2,95,0.00,CLR,,0.00,WeatherDisplay:10.37,2017-05-25 05:42:00,
2017-05-25 01:47:00,52.3,50.9,29.58,ENE,72,0.0,1.2,95,0.00,CLR,,0.00,WeatherDisplay:10.37,2017-05-25 05:47:00,
2017-05-25 01:52:00,52.2,50.8,29.58,ENE,72,0.0,1.2,95,0.00,CLR,,0.00,WeatherDisplay:10.37,2017-05-25 05:52:00,
2017-05-25 01:57:00,52.2,50.8,29.58,ENE,64,0.0,1.2,95,0.00,CLR,,0.00,WeatherDisplay:10.37,2017-05-25 05:57:00,
2017-05-25 02:02:00,52.1,51.0,29.58,SW,224,0.4,1.2,96,0.00,CLR,,0.00,WeatherDisplay:10.37,2017-05-25 06:02:00,
2017-05-25 02:07:00,52.1,50.7,29.58,West,269,0.0,3.5,95,0.00,CLR,,0.00,WeatherDisplay:10.37,2017-05-25 06:07:00,
2017-05-25 02:12:00,52.0,50.6,29.58,NW,317,0.2,3.5,95,0.00,CLR,,0.00,WeatherDisplay:10.37,2017-05-25 06:12:00,
2017-05-25 02:17:00,52.0,50.6,29.58,NW,317,0.3,1.2,95,0.00,CLR,,0.00,WeatherDisplay:10.37,2017-05-25 06:17:00,
2017-05-25 02:22:00,51.9,50.5,29.58,NW,317,0.0,1.2,95,0.00,CLR,,0.00,WeatherDisplay:10.37,2017-05-25 06:22:00,
2017-05-25 02:27:00,51.9,50.5,29.58,NW,317,0.0,1.2,95,0.00,CLR,,0.00,WeatherDisplay:10.37,2017-05-25 06:27:00,
2017-05-25 02:32:00,51.8,50.4,29.57,NW,317,0.1,1.2,95,0.00,CLR,,0.00,WeatherDisplay:10.37,2017-05-25 06:32:00,
2017-05-25 02:37:00,51.8,50.4,29.57,NW,317,0.0,1.2,95,0.00,CLR,,0.00,WeatherDisplay:10.37,2017-05-25 06:37:00,
2017-05-25 02:42:00,51.8,50.4,29.57,NW,317,0.0,1.2,95,0.00,CLR,,0.00,WeatherDisplay:10.37,2017-05-25 06:42:00,
2017-05-25 02:47:00,51.8,50.7,29.57,NW,317,0.0,1.2,96,0.00,CLR,,0.00,WeatherDisplay:10.37,2017-05-25 06:47:00,
2017-05-25 02:52:00,51.8,50.7,29.57,NW,317,0.1,1.2,96,0.00,CLR,,0.00,WeatherDisplay:10.37,2017-05-25 06:52:00,
2017-05-25 02:57:00,51.8,50.7,29.57,WNW,290,0.0,1.2,96,0.00,CLR,,0.00,WeatherDisplay:10.37,2017-05-25 06:57:00,
2017-05-25 03:02:00,51.8,50.7,29.57,WNW,290,0.5,1.2,96,0.00,CLR,,0.00,WeatherDisplay:10.37,2017-05-25 07:02:00,
2017-05-25 03:07:00,51.8,50.7,29.57,WNW,290,0.0,1.2,96,0.00,CLR,,0.00,WeatherDisplay:10.37,2017-05-25 07:07:00,
2017-05-25 03:12:00,51.9,50.8,29.57,WNW,290,0.0,1.2,96,0.00,CLR,,0.00,WeatherDisplay:10.37,2017-05-25 07:12:00,
2017-05-25 03:17:00,51.9,50.8,29.57,WNW,290,0.1,1.2,96,0.00,CLR,,0.00,WeatherDisplay:10.37,2017-05-25 07:17:00,
2017-05-25 03:22:00,51.9,50.8,29.57,WNW,290,0.2,1.2,96,0.00,CLR,,0.00,WeatherDisplay:10.37,2017-05-25 07:22:00,
2017-05-25 03:27:00,51.9,50.8,29.57,WNW,290,0.0,1.2,96,0.00,CLR,,0.00,WeatherDisplay:10.37,2017-05-25 07:27:00,
2017-05-25 03:32:00,51.7,50.6,29.57,WNW,290,0.0,1.2,96,0.00,CLR,,0.00,WeatherDisplay:10.37,2017-05-25 07:32:00,
2017-05-25 03:37:00,51.7,50.6,29.57,WNW,290,0.0,1.2,96,0.00,CLR,,0.00,WeatherDisplay:10.37,2017-05-25 07:37:00,
2017-05-25 03:42:00,51.6,50.5,29.57,WNW,290,0.0,1.2,96,0.00,CLR,,0.00,WeatherDisplay:10.37,2017-05-25 07:42:00,
2017-05-25 03:47:00,51.5,50.4,29.57,WNW,290,0.0,1.2,96,0.00,CLR,,0.00,WeatherDisplay:10.37,2017-05-25 07:47:00,
2017-05-25 03:52:00,51.5,50.7,29.57,WNW,290,0.0,1.2,97,0.00,CLR,,0.00,WeatherDisplay:10.37,2017-05-25 07:52:00,
2017-05-25 03:57:00,51.6,50.8,29.57,WSW,239,0.0,1.2,97,0.00,CLR,,0.00,WeatherDisplay:10.37,2017-05-25 07:57:00,
2017-05-25 04:02:00,51.7,50.9,29.57,WSW,239,0.1,1.2,97,0.00,CLR,,0.00,WeatherDisplay:10.37,2017-05-25 08:02:00,
2017-05-25 04:07:00,51.6,50.8,29.57,WSW,239,0.0,1.2,97,0.00,CLR,,0.00,WeatherDisplay:10.37,2017-05-25 08:07:00,
2017-05-25 04:12:00,51.6,50.8,29.57,SW,235,0.0,1.2,97,0.00,CLR,,0.00,WeatherDisplay:10.37,2017-05-25 08:12:00,
2017-05-25 04:17:00,51.5,50.7,29.57,SW,235,0.0,1.2,97,0.00,CLR,,0.00,WeatherDisplay:10.37,2017-05-25 08:17:00,
2017-05-25 04:22:00,51.5,50.7,29.57,West,273,0.0,1.2,97,0.00,CLR,,0.00,WeatherDisplay:10.37,2017-05-25 08:22:00,
2017-05-25 04:27:00,51.5,50.7,29.57,West,275,0.1,1.2,97,0.00,CLR,,0.00,WeatherDisplay:10.37,2017-05-25 08:27:00,
2017-05-25 04:32:00,51.4,50.6,29.57,West,273,0.0,2.3,97,0.00,CLR,,0.00,WeatherDisplay:10.37,2017-05-25 08:32:00,
2017-05-25 04:37:00,51.4,50.6,29.57,West,277,0.1,2.3,97,0.00,CLR,,0.00,WeatherDisplay:10.37,2017-05-25 08:37:00,
2017-05-25 04:42:00,51.3,50.5,29.57,West,277,0.2,1.2,97,0.00,CLR,,0.00,WeatherDisplay:10.37,2017-05-25 08:42:00,
2017-05-25 04:47:00,51.2,50.7,29.57,ENE,59,0.1,2.3,98,0.00,CLR,,0.00,WeatherDisplay:10.37,2017-05-25 08:47:00,
2017-05-25 04:52:00,51.2,50.7,29.58,ENE,59,0.0,2.3,98,0.00,CLR,,0.00,WeatherDisplay:10.37,2017-05-25 08:52:00,
2017-05-25 04:57:00,51.1,50.6,29.58,ENE,59,0.1,1.2,98,0.00,CLR,,0.00,WeatherDisplay:10.37,2017-05-25 08:57:00,
2017-05-25 05:02:00,51.1,50.6,29.58,ENE,61,0.3,1.2,98,0.00,CLR,,0.00,WeatherDisplay:10.37,2017-05-25 09:02:00,
2017-05-25 05:07:00,51.0,50.5,29.58,NE,56,0.1,1.2,98,0.00,CLR,,0.00,WeatherDisplay:10.37,2017-05-25 09:07:00,
2017-05-25 05:12:00,50.9,50.4,29.58,NE,56,0.0,1.2,98,0.00,CLR,,0.00,WeatherDisplay:10.37,2017-05-25 09:12:00,
2017-05-25 05:17:00,50.9,50.4,29.58,ENE,57,0.1,2.3,98,0.00,CLR,,0.00,WeatherDisplay:10.37,2017-05-25 09:17:00,
2017-05-25 05:22:00,50.9,50.4,29.58,NE,55,0.2,2.3,98,0.00,CLR,,0.00,WeatherDisplay:10.37,2017-05-25 09:22:00,
2017-05-25 05:27:00,50.9,50.4,29.59,ENE,60,0.1,1.2,98,0.00,CLR,,0.00,WeatherDisplay:10.37,2017-05-25 09:27:00,
2017-05-25 05:32:00,50.9,50.4,29.59,East,99,0.1,2.3,98,0.00,CLR,,0.00,WeatherDisplay:10.37,2017-05-25 09:32:00,
2017-05-25 05:37:00,50.7,50.2,29.59,East,99,0.3,2.3,98,0.00,CLR,,0.00,WeatherDisplay:10.37,2017-05-25 09:37:00,
2017-05-25 05:42:00,50.6,50.1,29.59,East,99,0.2,1.2,98,0.00,CLR,,0.00,WeatherDisplay:10.37,2017-05-25 09:42:00,
2017-05-25 05:47:00,50.6,50.1,29.59,East,99,0.0,1.2,98,0.00,CLR,,0.00,WeatherDisplay:10.37,2017-05-25 09:47:00,
2017-05-25 05:52:00,50.5,50.0,29.59,East,99,0.2,1.2,98,0.00,CLR,,0.00,WeatherDisplay:10.37,2017-05-25 09:52:00,
2017-05-25 05:57:00,50.5,50.0,29.59,East,99,0.1,1.2,98,0.00,CLR,,0.00,WeatherDisplay:10.37,2017-05-25 09:57:00,
2017-05-25 06:02:00,50.4,49.9,29.60,East,100,0.2,1.2,98,0.00,CLR,,0.00,WeatherDisplay:10.37,2017-05-25 10:02:00,
2017-05-25 06:07:00,50.5,50.0,29.59,ESE,110,0.5,2.3,98,0.00,CLR,,0.00,WeatherDisplay:10.37,2017-05-25 10:07:00,
2017-05-25 06:12:00,50.6,50.1,29.60,NNE,13,0.0,2.3,98,0.00,CLR,,0.00,WeatherDisplay:10.37,2017-05-25 10:12:00,
2017-05-25 06:17:00,50.7,50.2,29.60,NE,34,0.1,2.3,98,0.00,CLR,,0.00,WeatherDisplay:10.37,2017-05-25 10:17:00,
2017-05-25 06:22:00,50.8,50.5,29.61,NNW,329,0.0,2.3,99,0.00,CLR,,0.00,WeatherDisplay:10.37,2017-05-25 10:22:00,
2017-05-25 06:27:00,51.0,50.7,29.61,NNE,18,0.4,2.3,99,0.00,CLR,,0.00,WeatherDisplay:10.37,2017-05-25 10:27:00,
2017-05-25 06:32:00,51.2,50.9,29.61,NNE,19,0.1,2.3,99,0.00,CLR,,0.00,WeatherDisplay:10.37,2017-05-25 10:32:00,
2017-05-25 06:37:00,51.4,51.1,29.61,NNE,19,0.1,2.3,99,0.00,CLR,,0.00,WeatherDisplay:10.37,2017-05-25 10:37:00,
2017-05-25 06:42:00,51.4,51.1,29.61,ESE,119,0.3,2.3,99,0.00,CLR,,0.00,WeatherDisplay:10.37,2017-05-25 10:42:00,
2017-05-25 06:47:00,51.5,51.2,29.62,ESE,119,0.1,2.3,99,0.00,CLR,,0.00,WeatherDisplay:10.37,2017-05-25 10:47:00,
2017-05-25 06:52:00,51.5,51.2,29.62,ESE,115,0.2,1.2,99,0.00,CLR,,0.00,WeatherDisplay:10.37,2017-05-25 10:52:00,
2017-05-25 06:57:00,51.6,51.3,29.62,ESE,115,0.1,1.2,99,0.00,CLR,,0.00,WeatherDisplay:10.37,2017-05-25 10:57:00,
2017-05-25 07:02:00,51.8,51.5,29.63,ESE,114,0.1,1.2,99,0.00,CLR,,0.00,WeatherDisplay:10.37,2017-05-25 11:02:00,
2017-05-25 07:07:00,52.1,51.8,29.63,ESE,105,0.1,1.2,99,0.00,CLR,,0.00,WeatherDisplay:10.37,2017-05-25 11:07:00,
2017-05-25 07:08:00,52.1,51.8,29.63,ESE,105,0.1,1.2,99,0.00,CLR,,0.00,WeatherDisplay:10.37,2017-05-25 11:08:00,
2017-05-25 07:13:00,52.4,52.1,29.63,ESE,105,0.2,2.3,99,0.00,CLR,,0.00,WeatherDisplay:10.37,2017-05-25 11:13:00,
2017-05-25 07:18:00,52.7,52.4,29.63,NE,43,0.1,2.3,99,0.00,CLR,,0.00,WeatherDisplay:10.37,2017-05-25 11:18:00,
2017-05-25 07:23:00,52.8,52.5,29.63,ESE,106,0.3,3.5,99,0.00,CLR,,0.00,WeatherDisplay:10.37,2017-05-25 11:23:00,
2017-05-25 07:28:00,52.8,52.3,29.63,SE,136,0.8,3.5,98,0.00,CLR,,0.00,WeatherDisplay:10.37,2017-05-25 11:28:00,
2017-05-25 07:33:00,53.0,52.5,29.63,South,169,0.4,2.3,98,0.00,CLR,,0.00,WeatherDisplay:10.37,2017-05-25 11:33:00,
2017-05-25 07:38:00,53.7,53.4,29.63,ESE,119,0.7,3.5,99,0.00,CLR,,0.00,WeatherDisplay:10.37,2017-05-25 11:38:00,
2017-05-25 07:43:00,54.1,53.5,29.64,ESE,123,0.3,3.5,98,0.00,CLR,,0.00,WeatherDisplay:10.37,2017-05-25 11:43:00,
2017-05-25 07:48:00,54.3,53.7,29.63,ENE,77,0.5,3.5,98,0.00,CLR,,0.00,WeatherDisplay:10.37,2017-05-25 11:48:00,
2017-05-25 07:53:00,54.2,53.6,29.63,ESE,122,0.8,3.5,98,0.00,CLR,,0.00,WeatherDisplay:10.37,2017-05-25 11:53:00,
2017-05-25 07:58:00,54.2,53.6,29.64,NW,313,0.8,3.5,98,0.00,CLR,,0.00,WeatherDisplay:10.37,2017-05-25 11:58:00,
2017-05-25 08:03:00,54.5,53.9,29.65,ENE,72,0.7,2.3,98,0.00,CLR,,0.00,WeatherDisplay:10.37,2017-05-25 12:03:00,
2017-05-25 08:08:00,55.0,54.4,29.65,ENE,64,0.2,2.3,98,0.00,CLR,,0.00,WeatherDisplay:10.37,2017-05-25 12:08:00,
2017-05-25 08:13:00,55.4,54.8,29.65,ENE,72,0.6,2.3,98,0.00,CLR,,0.00,WeatherDisplay:10.37,2017-05-25 12:13:00,
2017-05-25 08:18:00,55.7,55.1,29.65,ESE,122,1.2,3.5,98,0.00,CLR,,0.00,WeatherDisplay:10.37,2017-05-25 12:18:00,
2017-05-25 08:23:00,56.3,55.7,29.65,WNW,284,0.5,3.5,98,0.00,CLR,,0.00,WeatherDisplay:10.37,2017-05-25 12:23:00,
2017-05-25 08:28:00,56.9,56.3,29.65,SSW,205,0.7,3.5,98,0.00,CLR,,0.00,WeatherDisplay:10.37,2017-05-25 12:28:00,
2017-05-25 08:33:00,57.5,56.7,29.65,SSW,205,1.4,3.5,97,0.00,CLR,,0.00,WeatherDisplay:10.37,2017-05-25 12:33:00,
2017-05-25 08:35:00,57.7,56.9,29.65,ESE,114,1.1,3.5,97,0.00,CLR,,0.00,WeatherDisplay:10.37,2017-05-25 12:35:00,
2017-05-25 08:40:00,58.1,57.0,29.65,ESE,114,1.0,3.5,96,0.00,CLR,,0.00,WeatherDisplay:10.37,2017-05-25 12:40:00,
2017-05-25 08:46:00,59.0,57.9,29.65,SE,144,0.5,3.5,96,0.00,CLR,,0.00,WeatherDisplay:10.37,2017-05-25 12:46:00,
2017-05-25 08:51:00,59.4,57.7,29.65,WSW,238,1.6,3.5,94,0.00,CLR,,0.00,WeatherDisplay:10.37,2017-05-25 12:51:00,
2017-05-25 08:56:00,59.2,57.2,29.65,SSE,156,1.3,6.9,93,0.00,CLR,,0.00,WeatherDisplay:10.37,2017-05-25 12:56:00,
2017-05-25 09:01:00,59.4,57.1,29.65,East,97,1.3,6.9,92,0.00,CLR,,0.00,WeatherDisplay:10.37,2017-05-25 13:01:00,
2017-05-25 09:06:00,59.6,57.3,29.65,North,11,1.3,5.8,92,0.00,CLR,,0.00,WeatherDisplay:10.37,2017-05-25 13:06:00,
2017-05-25 09:11:00,59.4,56.8,29.66,East,90,0.8,5.8,91,0.00,CLR,,0.00,WeatherDisplay:10.37,2017-05-25 13:11:00,
2017-05-25 09:16:00,59.3,57.0,29.66,WSW,256,0.6,5.8,92,0.00,CLR,,0.00,WeatherDisplay:10.37,2017-05-25 13:16:00,
2017-05-25 09:21:00,59.2,56.9,29.66,SSE,159,3.0,4.6,92,0.00,CLR,,0.00,WeatherDisplay:10.37,2017-05-25 13:21:00,